Austin, Texas
Traffic Map
Current Weather Conditions
Austin, Texas
Overcast Light Rain
Overcast
22°
Feels Like: 22°
Wind Chill: 22° Ceiling: 5500
Heat Index: 22° Visibility: 10mi
Dew Point: 15° Wind: 0mph
Humidity: 66% Direction: ° ()
Pressure: 30.13in Gusts: 0mph
Raw Report DataKATT 310451Z AUTO 00000KT 10SM -RA OVC055 22/15 A3013 RMK AO2 RAB51 SLP193 P0000 T02170150
Traffic Incident Summary
Active as of:
Severity:
Category:
InformationThere was an issue retrieving the traffic information for this location. Please try a different location or try again shortly.
Advertisements
Track Severe Weather on mobile